createdAt,value
2018-02-23T00:01:43.657Z,0.60
2018-02-23T00:04:11.923Z,0.50
2018-02-23T00:06:40.221Z,0.50
2018-02-23T00:09:08.478Z,0.50
2018-02-23T00:11:37.683Z,0.40
2018-02-23T00:14:06.788Z,0.50
2018-02-23T00:16:36.006Z,0.40
2018-02-23T00:19:05.058Z,0.40
2018-02-23T00:21:33.342Z,0.30
2018-02-23T00:24:01.607Z,0.30
2018-02-23T00:26:29.911Z,0.30
2018-02-23T00:28:58.203Z,0.30
2018-02-23T00:31:26.497Z,0.30
2018-02-23T00:33:54.767Z,0.30
2018-02-23T00:36:23.038Z,0.30
2018-02-23T00:38:51.333Z,0.20
2018-02-23T00:41:19.591Z,0.20
2018-02-23T00:43:47.853Z,0.20
2018-02-23T00:46:16.142Z,0.10
2018-02-23T00:48:44.408Z,0.10
2018-02-23T00:51:12.695Z,0.20
2018-02-23T00:53:40.998Z,0.10
2018-02-23T00:56:09.278Z,0.10
2018-02-23T00:58:37.534Z,0.20
2018-02-23T01:01:06.949Z,0.10
2018-02-23T01:03:36.084Z,0.10
2018-02-23T01:06:05.068Z,0.10
2018-02-23T01:08:33.332Z,0.10
2018-02-23T01:11:01.596Z,0.00
2018-02-23T01:13:29.890Z,0.10
2018-02-23T01:15:58.151Z,0.10
2018-02-23T01:18:26.437Z,0.20
2018-02-23T01:20:54.709Z,0.10
2018-02-23T01:23:22.999Z,0.20
2018-02-23T01:25:51.256Z,-0.10
2018-02-23T01:28:19.544Z,-0.20
2018-02-23T01:30:47.807Z,0.00
2018-02-23T01:33:16.091Z,0.00
2018-02-23T01:35:44.391Z,-0.20
2018-02-23T01:38:12.683Z,-0.30
2018-02-23T01:40:40.979Z,-0.30
2018-02-23T01:43:09.234Z,-0.20
2018-02-23T01:45:37.538Z,-0.20
2018-02-23T01:48:06.748Z,-0.20
2018-02-23T01:50:46.754Z,-0.20
2018-02-23T01:53:15.045Z,-0.30
2018-02-23T01:55:43.306Z,-0.30
2018-02-23T01:58:11.602Z,-0.20
2018-02-23T02:00:39.890Z,-0.10
2018-02-23T02:03:08.191Z,-0.10
2018-02-23T02:05:36.453Z,0.00
2018-02-23T02:08:05.490Z,0.00
2018-02-23T02:10:33.741Z,0.00
2018-02-23T02:13:02.035Z,-0.10
2018-02-23T02:15:30.294Z,-0.10
2018-02-23T02:17:59.385Z,-0.20
2018-02-23T02:20:27.681Z,-0.30
2018-02-23T02:22:55.978Z,-0.30
2018-02-23T02:25:24.275Z,-0.30
2018-02-23T02:27:52.547Z,-0.40
2018-02-23T02:30:20.839Z,-0.40
2018-02-23T02:32:49.105Z,-0.40
2018-02-23T02:35:17.400Z,-0.40
2018-02-23T02:37:46.560Z,-0.40
2018-02-23T02:40:14.863Z,-0.40
2018-02-23T02:42:43.120Z,-0.40
2018-02-23T02:45:11.384Z,-0.40
2018-02-23T02:47:38.903Z,-0.40
2018-02-23T02:50:07.212Z,-0.40
2018-02-23T02:52:36.810Z,-0.40
2018-02-23T02:55:05.967Z,-0.40
2018-02-23T02:57:35.036Z,-0.30
2018-02-23T03:00:03.315Z,-0.20
2018-02-23T03:02:31.610Z,-0.20
2018-02-23T03:04:59.121Z,-0.20
2018-02-23T03:07:27.434Z,-0.20
2018-02-23T03:09:55.706Z,-0.30
2018-02-23T03:12:24.015Z,-0.50
2018-02-23T03:14:52.283Z,-0.50
2018-02-23T03:17:20.579Z,-0.40
2018-02-23T03:19:48.853Z,-0.50
2018-02-23T03:22:17.185Z,-0.60
2018-02-23T03:24:45.455Z,-0.60
2018-02-23T03:27:13.725Z,-0.50
2018-02-23T03:29:42.031Z,-0.40
2018-02-23T03:32:10.298Z,-0.40
2018-02-23T03:34:38.554Z,-0.50
2018-02-23T03:37:06.848Z,-0.60
2018-02-23T03:39:36.018Z,-0.50
2018-02-23T03:42:04.859Z,-0.60
2018-02-23T03:44:33.128Z,-0.70
2018-02-23T03:47:01.421Z,-0.60
2018-02-23T03:49:29.695Z,-0.60
2018-02-23T03:51:57.987Z,-0.70
2018-02-23T03:54:26.294Z,-0.60
2018-02-23T03:56:54.569Z,-0.70
2018-02-23T03:59:22.865Z,-0.70
2018-02-23T04:01:51.146Z,-0.60
2018-02-23T04:04:19.438Z,-0.50
2018-02-23T04:06:47.726Z,-0.60
2018-02-23T04:09:16.019Z,-0.60
2018-02-23T04:11:44.310Z,-0.60
2018-02-23T04:14:12.576Z,-0.60
2018-02-23T04:16:40.848Z,-0.60
2018-02-23T04:19:09.147Z,-0.40
2018-02-23T04:21:39.977Z,-0.50
2018-02-23T04:24:08.276Z,-0.40
2018-02-23T04:26:36.548Z,-0.50
2018-02-23T04:29:05.391Z,-0.50
2018-02-23T04:31:33.699Z,-0.50
2018-02-23T04:34:01.215Z,-0.50
2018-02-23T04:36:29.494Z,-0.50
2018-02-23T04:38:57.797Z,-0.40
2018-02-23T04:41:26.069Z,-0.60
2018-02-23T04:43:54.359Z,-0.70
2018-02-23T04:46:22.672Z,-0.70
2018-02-23T04:48:50.952Z,-0.70
2018-02-23T04:51:19.211Z,-0.70
2018-02-23T04:53:47.512Z,-0.70
2018-02-23T04:56:15.792Z,-0.60
2018-02-23T04:58:44.114Z,-0.60
2018-02-23T05:01:12.368Z,-0.50
2018-02-23T05:03:40.635Z,-0.50
2018-02-23T05:06:08.173Z,-0.60
2018-02-23T05:08:36.454Z,-0.60
2018-02-23T05:11:05.108Z,-0.70
2018-02-23T05:13:33.420Z,-0.70
2018-02-23T05:16:01.686Z,-0.60
2018-02-23T05:18:29.960Z,-0.60
2018-02-23T05:20:58.254Z,-0.60
2018-02-23T05:23:26.556Z,-0.60
2018-02-23T05:25:54.826Z,-0.70
2018-02-23T05:28:23.137Z,-0.70
2018-02-23T05:30:51.409Z,-0.40
2018-02-23T05:33:19.700Z,-0.50
2018-02-23T05:35:48.016Z,-0.60
2018-02-23T05:38:16.278Z,-0.60
2018-02-23T05:40:44.577Z,-0.70
2018-02-23T05:43:12.881Z,-0.70
2018-02-23T05:45:41.193Z,-0.70
2018-02-23T05:48:09.462Z,-0.60
2018-02-23T05:50:37.733Z,-0.60
2018-02-23T05:53:06.880Z,-0.50
2018-02-23T05:55:34.398Z,-0.60
2018-02-23T05:58:02.700Z,-0.60
2018-02-23T06:00:30.962Z,-0.50
2018-02-23T06:02:59.261Z,-0.50
2018-02-23T06:05:27.557Z,-0.50
2018-02-23T06:07:55.859Z,-0.40
2018-02-23T06:10:24.141Z,-0.50
2018-02-23T06:12:52.422Z,-0.60
2018-02-23T06:15:20.731Z,-0.60
2018-02-23T06:17:54.737Z,-0.60
2018-02-23T06:20:28.885Z,-0.50
2018-02-23T06:22:57.184Z,-0.60
2018-02-23T06:25:24.693Z,-0.70
2018-02-23T06:27:52.962Z,-0.80
2018-02-23T06:30:21.267Z,-0.70
2018-02-23T06:32:49.526Z,-0.80
2018-02-23T06:35:17.833Z,-0.80
2018-02-23T06:37:46.091Z,-0.80
2018-02-23T06:40:14.408Z,-0.80
2018-02-23T06:42:42.663Z,-0.80
2018-02-23T06:45:10.927Z,-0.80
2018-02-23T06:47:39.226Z,-0.70
2018-02-23T06:50:07.533Z,-0.70
2018-02-23T06:52:36.545Z,-0.70
2018-02-23T06:55:05.832Z,-0.70
2018-02-23T06:57:34.843Z,-0.70
2018-02-23T07:00:03.124Z,-0.70
2018-02-23T07:02:34.450Z,-0.70
2018-02-23T07:05:01.973Z,-0.70
2018-02-23T07:07:30.249Z,-0.60
2018-02-23T07:09:58.566Z,-0.50
2018-02-23T07:12:26.835Z,-0.60
2018-02-23T07:14:55.140Z,-0.60
2018-02-23T07:17:23.399Z,-0.40
2018-02-23T07:19:51.663Z,-0.40
2018-02-23T07:22:20.022Z,-0.40
2018-02-23T07:24:48.243Z,-0.50
2018-02-23T07:27:16.520Z,-0.30
2018-02-23T07:29:44.810Z,-0.40
2018-02-23T07:32:14.044Z,-0.30
2018-02-23T07:34:42.353Z,-0.30
2018-02-23T07:37:10.620Z,-0.30
2018-02-23T07:39:38.935Z,-0.30
2018-02-23T07:42:07.215Z,-0.20
2018-02-23T07:44:36.123Z,-0.20
2018-02-23T07:47:03.657Z,-0.20
2018-02-23T07:49:36.452Z,-0.10
2018-02-23T07:52:03.956Z,-0.10
2018-02-23T07:54:44.361Z,0.00
2018-02-23T07:57:12.656Z,0.00
2018-02-23T07:59:40.932Z,-0.10
2018-02-23T08:02:09.232Z,0.00
2018-02-23T08:04:36.773Z,0.00
2018-02-23T08:07:05.791Z,0.10
2018-02-23T08:09:34.082Z,0.10
2018-02-23T08:12:02.389Z,0.20
2018-02-23T08:14:30.676Z,0.30
2018-02-23T08:16:58.993Z,0.30
2018-02-23T08:19:27.259Z,0.30
2018-02-23T08:21:55.569Z,0.30
2018-02-23T08:24:23.854Z,0.30
2018-02-23T08:26:52.119Z,0.40
2018-02-23T08:29:20.418Z,0.50
2018-02-23T08:31:48.670Z,0.50
2018-02-23T08:34:16.960Z,0.60
2018-02-23T08:36:45.250Z,0.60
2018-02-23T08:39:13.513Z,0.60
2018-02-23T08:41:41.833Z,0.60
2018-02-23T08:44:10.095Z,0.70
2018-02-23T08:46:38.355Z,0.80
2018-02-23T08:49:06.960Z,0.80
2018-02-23T08:51:36.149Z,0.80
2018-02-23T08:54:04.458Z,0.90
2018-02-23T08:56:32.715Z,0.90
2018-02-23T08:59:00.976Z,1.00
2018-02-23T09:01:29.274Z,1.00
2018-02-23T09:03:57.546Z,1.10
2018-02-23T09:06:25.818Z,1.10
2018-02-23T09:08:54.110Z,1.10
2018-02-23T09:11:22.391Z,1.20
2018-02-23T09:13:50.654Z,1.20
2018-02-23T09:16:18.947Z,1.10
2018-02-23T09:18:47.255Z,1.20
2018-02-23T09:21:16.437Z,1.30
2018-02-23T09:23:44.725Z,1.30
2018-02-23T09:26:12.983Z,1.30
2018-02-23T09:28:41.293Z,1.50
2018-02-23T09:31:09.549Z,1.60
2018-02-23T09:33:49.579Z,1.60
2018-02-23T09:36:17.883Z,1.80
2018-02-23T09:38:46.184Z,1.90
2018-02-23T09:41:14.495Z,1.80
2018-02-23T09:43:42.784Z,1.90
2018-02-23T09:46:11.184Z,1.90
2018-02-23T09:48:39.457Z,1.90
2018-02-23T09:51:07.729Z,1.90
2018-02-23T09:53:36.619Z,1.80
2018-02-23T09:56:05.621Z,1.80
2018-02-23T09:58:33.887Z,1.70
2018-02-23T10:01:02.181Z,1.70
2018-02-23T10:03:30.500Z,1.70
2018-02-23T10:05:58.794Z,1.70
2018-02-23T10:08:27.052Z,1.70
2018-02-23T10:10:55.390Z,1.70
2018-02-23T10:13:23.631Z,1.70
2018-02-23T10:15:51.933Z,1.80
2018-02-23T10:18:20.200Z,1.80
2018-02-23T10:20:48.479Z,1.80
2018-02-23T10:23:16.793Z,1.90
2018-02-23T10:25:44.288Z,1.90
2018-02-23T10:28:12.555Z,2.00
2018-02-23T10:30:40.880Z,2.20
2018-02-23T10:33:09.143Z,2.30
2018-02-23T10:35:37.448Z,2.30
2018-02-23T10:38:06.441Z,2.30
2018-02-23T10:40:35.364Z,2.40
2018-02-23T10:43:03.636Z,2.50
2018-02-23T10:45:31.923Z,2.50
2018-02-23T10:48:00.184Z,2.70
2018-02-23T10:50:28.475Z,2.70
2018-02-23T10:52:56.735Z,2.80
2018-02-23T10:55:25.040Z,2.90
2018-02-23T10:57:53.344Z,3.00
2018-02-23T11:00:21.653Z,3.20
2018-02-23T11:02:49.932Z,3.20
2018-02-23T11:05:17.492Z,3.20
2018-02-23T11:07:45.324Z,3.30
2018-02-23T11:10:13.590Z,3.40
2018-02-23T11:12:41.889Z,3.50
2018-02-23T11:15:10.187Z,3.50
2018-02-23T11:17:38.464Z,3.60
2018-02-23T11:20:10.471Z,3.60
2018-02-23T11:22:38.728Z,3.80
2018-02-23T11:25:07.011Z,3.70
2018-02-23T11:27:35.308Z,3.80
2018-02-23T11:30:03.572Z,3.80
2018-02-23T11:32:31.850Z,3.80
2018-02-23T11:35:00.141Z,3.90
2018-02-23T11:37:28.399Z,3.90
2018-02-23T11:39:56.702Z,4.00
2018-02-23T11:42:24.969Z,3.80
2018-02-23T11:44:53.231Z,3.90
2018-02-23T11:47:21.525Z,3.90
2018-02-23T11:49:49.822Z,4.00
2018-02-23T11:52:18.091Z,4.10
2018-02-23T11:54:49.525Z,4.20
2018-02-23T11:57:32.666Z,4.20
2018-02-23T12:00:00.972Z,4.30
2018-02-23T12:02:29.244Z,4.30
2018-02-23T12:04:57.509Z,4.50
2018-02-23T12:07:25.802Z,4.40
2018-02-23T12:09:54.063Z,4.40
2018-02-23T12:12:22.369Z,4.30
2018-02-23T12:14:50.624Z,4.30
2018-02-23T12:17:18.919Z,4.20
2018-02-23T12:19:47.185Z,4.10
2018-02-23T12:22:15.446Z,4.20
2018-02-23T12:24:43.736Z,4.30
2018-02-23T12:27:12.041Z,4.30
2018-02-23T12:29:40.323Z,4.30
2018-02-23T12:32:07.834Z,4.30
2018-02-23T12:34:37.316Z,4.40
2018-02-23T12:37:06.119Z,4.40
2018-02-23T12:39:35.062Z,4.40
2018-02-23T12:42:03.359Z,4.40
2018-02-23T12:44:31.624Z,4.30
2018-02-23T12:46:59.895Z,4.30
2018-02-23T12:49:28.201Z,4.50
2018-02-23T12:51:56.460Z,4.50
2018-02-23T12:54:24.723Z,4.50
2018-02-23T12:56:53.022Z,4.60
2018-02-23T12:59:21.292Z,4.50
2018-02-23T13:01:49.601Z,4.50
2018-02-23T13:04:17.858Z,4.60
2018-02-23T13:06:46.120Z,4.50
2018-02-23T13:09:14.412Z,4.60
2018-02-23T13:11:42.985Z,4.50
2018-02-23T13:14:11.284Z,4.50
2018-02-23T13:16:39.585Z,4.40
2018-02-23T13:19:07.844Z,4.30
2018-02-23T13:21:41.834Z,4.40
2018-02-23T13:24:10.140Z,4.40
2018-02-23T13:26:38.406Z,4.40
2018-02-23T13:29:06.662Z,4.40
2018-02-23T13:31:36.154Z,4.30
2018-02-23T13:34:04.696Z,4.40
2018-02-23T13:36:33.002Z,4.40
2018-02-23T13:39:01.261Z,4.20
2018-02-23T13:41:35.649Z,4.10
2018-02-23T13:44:03.934Z,4.20
2018-02-23T13:46:32.237Z,4.20
2018-02-23T13:49:00.534Z,4.20
2018-02-23T13:51:28.816Z,4.20
2018-02-23T13:54:12.000Z,4.20
2018-02-23T13:56:40.250Z,4.10
2018-02-23T13:59:08.530Z,4.10
2018-02-23T14:01:36.791Z,4.30
2018-02-23T14:04:05.969Z,4.20
2018-02-23T14:06:34.894Z,4.20
2018-02-23T14:09:03.163Z,4.20
2018-02-23T14:11:31.443Z,4.20
2018-02-23T14:13:59.695Z,4.20
2018-02-23T14:16:27.975Z,4.20
2018-02-23T14:18:56.248Z,4.30
2018-02-23T14:21:24.539Z,4.20
2018-02-23T14:23:52.828Z,4.20
2018-02-23T14:26:21.115Z,4.20
2018-02-23T14:28:49.386Z,4.20
2018-02-23T14:31:17.638Z,4.20
2018-02-23T14:33:45.929Z,4.20
2018-02-23T14:36:14.226Z,4.10
2018-02-23T14:38:42.479Z,4.20
2018-02-23T14:41:10.786Z,4.10
2018-02-23T14:43:39.049Z,4.00
2018-02-23T14:46:07.304Z,3.90
2018-02-23T14:48:47.476Z,4.00
2018-02-23T14:51:15.740Z,4.00
2018-02-23T14:53:44.040Z,3.90
2018-02-23T14:56:12.337Z,4.00
2018-02-23T14:58:40.606Z,4.00
2018-02-23T15:01:08.890Z,3.90
2018-02-23T15:03:37.160Z,3.90
2018-02-23T15:06:05.459Z,4.00
2018-02-23T15:08:33.732Z,3.90
2018-02-23T15:11:02.035Z,4.10
2018-02-23T15:13:30.283Z,4.10
2018-02-23T15:15:58.546Z,4.00
2018-02-23T15:18:26.830Z,3.90
2018-02-23T15:20:55.124Z,3.80
2018-02-23T15:23:23.389Z,3.70
2018-02-23T15:25:51.698Z,3.70
2018-02-23T15:28:19.973Z,3.60
2018-02-23T15:30:59.998Z,3.60
2018-02-23T15:33:28.404Z,3.60
2018-02-23T15:35:56.664Z,3.60
2018-02-23T15:38:24.924Z,3.50
2018-02-23T15:40:53.229Z,3.50
2018-02-23T15:43:21.478Z,3.50
2018-02-23T15:45:49.801Z,3.50
2018-02-23T15:48:18.073Z,3.50
2018-02-23T15:50:52.069Z,3.40
2018-02-23T15:53:20.377Z,3.30
2018-02-23T15:55:47.870Z,3.30
2018-02-23T15:58:21.887Z,3.20
2018-02-23T16:00:50.196Z,3.10
2018-02-23T16:03:18.486Z,3.10
2018-02-23T16:05:46.734Z,3.10
2018-02-23T16:08:15.045Z,3.00
2018-02-23T16:10:43.307Z,3.10
2018-02-23T16:13:11.565Z,3.00
2018-02-23T16:15:39.850Z,3.00
2018-02-23T16:18:08.105Z,2.90
2018-02-23T16:20:42.970Z,2.90
2018-02-23T16:23:11.216Z,2.90
2018-02-23T16:25:39.495Z,2.90
2018-02-23T16:28:07.751Z,2.90
2018-02-23T16:30:37.156Z,2.90
2018-02-23T16:33:05.450Z,2.80
2018-02-23T16:35:33.723Z,2.80
2018-02-23T16:38:02.023Z,2.70
2018-02-23T16:40:29.521Z,2.70
2018-02-23T16:42:57.775Z,2.60
2018-02-23T16:45:26.078Z,2.60
2018-02-23T16:47:53.568Z,2.60
2018-02-23T16:50:21.823Z,2.60
2018-02-23T16:52:50.107Z,2.50
2018-02-23T16:55:19.630Z,2.50
2018-02-23T16:57:47.890Z,2.50
2018-02-23T17:00:16.206Z,2.40
2018-02-23T17:02:44.466Z,2.50
2018-02-23T17:05:12.735Z,2.40
2018-02-23T17:07:41.027Z,2.40
2018-02-23T17:10:09.328Z,2.50
2018-02-23T17:12:37.598Z,2.40
2018-02-23T17:15:06.889Z,2.30
2018-02-23T17:17:36.174Z,2.30
2018-02-23T17:20:04.435Z,2.30
2018-02-23T17:22:32.710Z,2.30
2018-02-23T17:25:00.996Z,2.20
2018-02-23T17:27:28.516Z,2.20
2018-02-23T17:29:56.794Z,2.20
2018-02-23T17:32:25.082Z,2.20
2018-02-23T17:34:53.340Z,2.10
2018-02-23T17:37:21.640Z,2.10
2018-02-23T17:39:49.890Z,2.10
2018-02-23T17:42:18.158Z,2.10
2018-02-23T17:44:46.442Z,2.10
2018-02-23T17:47:14.711Z,2.00
2018-02-23T17:49:43.009Z,1.90
2018-02-23T17:52:10.519Z,1.90
2018-02-23T17:54:38.827Z,2.00
2018-02-23T17:57:07.096Z,1.90
2018-02-23T17:59:35.390Z,1.80
2018-02-23T18:02:03.651Z,1.80
2018-02-23T18:04:31.937Z,1.80
2018-02-23T18:07:00.247Z,1.80
2018-02-23T18:09:28.503Z,1.80
2018-02-23T18:11:56.764Z,1.70
2018-02-23T18:14:25.055Z,1.70
2018-02-23T18:16:53.324Z,1.70
2018-02-23T18:19:21.610Z,1.70
2018-02-23T18:21:49.894Z,1.70
2018-02-23T18:24:18.186Z,1.70
2018-02-23T18:26:46.446Z,1.60
2018-02-23T18:29:14.752Z,1.60
2018-02-23T18:31:43.046Z,1.50
2018-02-23T18:34:11.302Z,1.60
2018-02-23T18:36:39.612Z,1.50
2018-02-23T18:39:07.874Z,1.40
2018-02-23T18:41:37.063Z,1.40
2018-02-23T18:44:05.318Z,1.40
2018-02-23T18:46:33.590Z,1.30
2018-02-23T18:49:01.877Z,1.30
2018-02-23T18:51:29.388Z,1.30
2018-02-23T18:53:57.678Z,1.40
2018-02-23T18:56:25.940Z,1.30
2018-02-23T18:58:54.245Z,1.30
2018-02-23T19:01:22.506Z,1.30
2018-02-23T19:03:50.818Z,1.30
2018-02-23T19:06:18.315Z,1.20
2018-02-23T19:08:46.571Z,1.20
2018-02-23T19:11:14.872Z,1.20
2018-02-23T19:13:43.157Z,1.20
2018-02-23T19:16:11.425Z,1.20
2018-02-23T19:18:39.726Z,1.20
2018-02-23T19:21:08.023Z,1.20
2018-02-23T19:23:37.137Z,1.20
2018-02-23T19:26:05.787Z,1.10
2018-02-23T19:28:34.052Z,1.00
2018-02-23T19:31:02.353Z,1.00
2018-02-23T19:33:30.652Z,1.00
2018-02-23T19:35:58.155Z,1.00
2018-02-23T19:38:26.430Z,1.00
2018-02-23T19:40:53.950Z,1.00
2018-02-23T19:43:22.217Z,0.90
2018-02-23T19:45:50.523Z,0.90
2018-02-23T19:48:18.778Z,0.90
2018-02-23T19:50:47.038Z,0.80
2018-02-23T19:53:15.342Z,0.80
2018-02-23T19:55:43.598Z,0.80
2018-02-23T19:58:11.854Z,0.80
2018-02-23T20:00:39.388Z,0.80
2018-02-23T20:03:07.690Z,0.70
2018-02-23T20:05:36.784Z,0.70
2018-02-23T20:08:05.670Z,0.70
2018-02-23T20:10:33.965Z,0.70
2018-02-23T20:13:02.223Z,0.70
2018-02-23T20:15:30.493Z,0.60
2018-02-23T20:17:59.254Z,0.70
2018-02-23T20:20:27.512Z,0.60
2018-02-23T20:22:55.804Z,0.60
2018-02-23T20:25:24.094Z,0.60
2018-02-23T20:27:52.373Z,0.60
2018-02-23T20:30:20.626Z,0.50
2018-02-23T20:32:48.926Z,0.50
2018-02-23T20:35:17.236Z,0.50
2018-02-23T20:37:45.513Z,0.50
2018-02-23T20:40:13.791Z,0.50
2018-02-23T20:42:42.083Z,0.50
2018-02-23T20:45:10.384Z,0.50
2018-02-23T20:47:38.646Z,0.50
2018-02-23T20:50:06.939Z,0.50
2018-02-23T20:52:36.095Z,0.50
2018-02-23T20:55:05.188Z,0.50
2018-02-23T20:57:33.458Z,0.50
2018-02-23T21:00:01.719Z,0.40
2018-02-23T21:02:30.019Z,0.40
2018-02-23T21:04:57.555Z,0.40
2018-02-23T21:07:25.837Z,0.40
2018-02-23T21:09:54.130Z,0.30
2018-02-23T21:12:22.440Z,0.40
2018-02-23T21:14:50.737Z,0.40
2018-02-23T21:17:19.008Z,0.30
2018-02-23T21:19:47.312Z,0.20
2018-02-23T21:22:15.617Z,0.30
2018-02-23T21:24:43.910Z,0.20
2018-02-23T21:27:12.191Z,0.20
2018-02-23T21:29:40.514Z,0.20
2018-02-23T21:32:07.999Z,0.20
2018-02-23T21:34:37.368Z,0.20
2018-02-23T21:37:06.444Z,0.20
2018-02-23T21:39:35.641Z,0.10
2018-02-23T21:42:03.922Z,0.20
2018-02-23T21:44:43.838Z,0.20
2018-02-23T21:47:12.116Z,0.10
2018-02-23T21:49:40.366Z,0.10
2018-02-23T21:52:08.658Z,0.10
2018-02-23T21:54:38.486Z,0.10
2018-02-23T21:57:06.772Z,0.10
2018-02-23T21:59:35.961Z,0.10
2018-02-23T22:02:04.960Z,0.00
2018-02-23T22:04:36.302Z,0.00
2018-02-23T22:07:05.659Z,0.00
2018-02-23T22:09:33.919Z,0.00
2018-02-23T22:12:02.226Z,0.00
2018-02-23T22:14:31.423Z,-0.10
2018-02-23T22:16:59.688Z,-0.10
2018-02-23T22:19:27.976Z,-0.10
2018-02-23T22:21:56.285Z,-0.10
2018-02-23T22:24:24.546Z,-0.10
2018-02-23T22:26:52.875Z,-0.10
2018-02-23T22:29:21.176Z,-0.10
2018-02-23T22:31:49.486Z,-0.10
2018-02-23T22:34:16.966Z,-0.20
2018-02-23T22:36:45.262Z,-0.10
2018-02-23T22:39:13.528Z,-0.10
2018-02-23T22:41:41.795Z,-0.10
2018-02-23T22:44:10.073Z,-0.20
2018-02-23T22:46:38.346Z,-0.20
2018-02-23T22:49:06.645Z,-0.20
2018-02-23T22:51:36.221Z,-0.20
2018-02-23T22:54:05.510Z,-0.30
2018-02-23T22:56:33.758Z,-0.30
2018-02-23T22:59:02.047Z,-0.30
2018-02-23T23:01:30.298Z,-0.30
2018-02-23T23:03:58.601Z,-0.40
2018-02-23T23:06:26.869Z,-0.30
2018-02-23T23:08:55.173Z,-0.30
2018-02-23T23:11:23.526Z,-0.30
2018-02-23T23:13:51.794Z,-0.30
2018-02-23T23:16:20.095Z,-0.20
2018-02-23T23:18:48.499Z,-0.30
2018-02-23T23:21:16.755Z,-0.40
2018-02-23T23:23:45.011Z,-0.30
2018-02-23T23:26:13.306Z,-0.30
2018-02-23T23:28:41.575Z,-0.30
2018-02-23T23:31:09.882Z,-0.30
2018-02-23T23:33:38.142Z,-0.40
2018-02-23T23:36:06.435Z,-0.50
2018-02-23T23:38:35.231Z,-0.50
2018-02-23T23:41:03.535Z,-0.40
2018-02-23T23:43:31.792Z,-0.40
2018-02-23T23:45:59.300Z,-0.40
2018-02-23T23:48:27.626Z,-0.40
2018-02-23T23:50:55.890Z,-0.50
2018-02-23T23:53:24.174Z,-0.50
2018-02-23T23:55:52.430Z,-0.50
2018-02-23T23:58:20.710Z,-0.50
